sensor_id;sensor_type;location;lat;lon;timestamp;P1;durP1;ratioP1;P2;durP2;ratioP2
40745;SDS011;26454;51.164;4.488;2023-04-24T00:01:03;30.55;;;21.05;;
40745;SDS011;26454;51.164;4.488;2023-04-24T00:03:32;34.42;;;21.80;;
40745;SDS011;26454;51.164;4.488;2023-04-24T00:05:58;40.63;;;21.35;;
40745;SDS011;26454;51.164;4.488;2023-04-24T00:08:26;33.70;;;21.27;;
40745;SDS011;26454;51.164;4.488;2023-04-24T00:10:52;35.83;;;22.77;;
40745;SDS011;26454;51.164;4.488;2023-04-24T00:13:29;31.90;;;21.02;;
40745;SDS011;26454;51.164;4.488;2023-04-24T00:15:55;28.15;;;21.25;;
40745;SDS011;26454;51.164;4.488;2023-04-24T00:18:21;29.55;;;21.83;;
40745;SDS011;26454;51.164;4.488;2023-04-24T00:20:48;35.00;;;23.70;;
40745;SDS011;26454;51.164;4.488;2023-04-24T00:23:14;32.38;;;23.75;;
40745;SDS011;26454;51.164;4.488;2023-04-24T00:25:40;45.30;;;25.42;;
40745;SDS011;26454;51.164;4.488;2023-04-24T00:28:06;34.70;;;23.58;;
40745;SDS011;26454;51.164;4.488;2023-04-24T00:30:32;35.92;;;24.10;;
40745;SDS011;26454;51.164;4.488;2023-04-24T00:32:59;38.08;;;25.30;;
40745;SDS011;26454;51.164;4.488;2023-04-24T00:35:25;40.33;;;24.63;;
40745;SDS011;26454;51.164;4.488;2023-04-24T00:37:51;38.30;;;23.88;;
40745;SDS011;26454;51.164;4.488;2023-04-24T00:40:17;49.05;;;25.75;;
40745;SDS011;26454;51.164;4.488;2023-04-24T00:42:43;39.10;;;25.30;;
40745;SDS011;26454;51.164;4.488;2023-04-24T00:45:10;34.08;;;24.15;;
40745;SDS011;26454;51.164;4.488;2023-04-24T00:47:36;52.00;;;24.63;;
40745;SDS011;26454;51.164;4.488;2023-04-24T00:50:05;37.65;;;25.15;;
40745;SDS011;26454;51.164;4.488;2023-04-24T00:54:59;39.92;;;25.05;;
40745;SDS011;26454;51.164;4.488;2023-04-24T00:57:26;34.85;;;24.58;;
40745;SDS011;26454;51.164;4.488;2023-04-24T00:59:52;40.33;;;25.10;;
40745;SDS011;26454;51.164;4.488;2023-04-24T01:02:19;31.30;;;24.15;;
40745;SDS011;26454;51.164;4.488;2023-04-24T01:04:47;34.58;;;23.48;;
40745;SDS011;26454;51.164;4.488;2023-04-24T01:07:19;35.40;;;24.50;;
40745;SDS011;26454;51.164;4.488;2023-04-24T01:09:46;43.70;;;24.55;;
40745;SDS011;26454;51.164;4.488;2023-04-24T01:12:15;31.50;;;23.85;;
40745;SDS011;26454;51.164;4.488;2023-04-24T01:14:41;29.85;;;23.25;;
40745;SDS011;26454;51.164;4.488;2023-04-24T01:17:09;36.35;;;24.25;;
40745;SDS011;26454;51.164;4.488;2023-04-24T01:19:36;30.83;;;23.00;;
40745;SDS011;26454;51.164;4.488;2023-04-24T01:22:02;29.88;;;22.45;;
40745;SDS011;26454;51.164;4.488;2023-04-24T01:24:28;31.23;;;22.00;;
40745;SDS011;26454;51.164;4.488;2023-04-24T01:26:55;35.28;;;21.80;;
40745;SDS011;26454;51.164;4.488;2023-04-24T01:29:21;64.93;;;22.45;;
40745;SDS011;26454;51.164;4.488;2023-04-24T01:31:48;31.73;;;19.77;;
40745;SDS011;26454;51.164;4.488;2023-04-24T01:34:14;23.67;;;19.17;;
40745;SDS011;26454;51.164;4.488;2023-04-24T01:36:42;31.58;;;20.73;;
40745;SDS011;26454;51.164;4.488;2023-04-24T01:39:08;26.00;;;17.60;;
40745;SDS011;26454;51.164;4.488;2023-04-24T01:41:35;23.70;;;17.33;;
40745;SDS011;26454;51.164;4.488;2023-04-24T01:44:02;35.88;;;18.85;;
40745;SDS011;26454;51.164;4.488;2023-04-24T01:46:28;23.38;;;16.35;;
40745;SDS011;26454;51.164;4.488;2023-04-24T01:48:56;22.63;;;16.05;;
40745;SDS011;26454;51.164;4.488;2023-04-24T01:51:23;28.60;;;16.60;;
40745;SDS011;26454;51.164;4.488;2023-04-24T01:53:49;25.58;;;16.38;;
40745;SDS011;26454;51.164;4.488;2023-04-24T01:56:16;23.13;;;17.00;;
40745;SDS011;26454;51.164;4.488;2023-04-24T01:58:42;27.80;;;15.95;;
40745;SDS011;26454;51.164;4.488;2023-04-24T02:01:09;24.75;;;16.20;;
40745;SDS011;26454;51.164;4.488;2023-04-24T02:03:42;37.67;;;17.73;;
40745;SDS011;26454;51.164;4.488;2023-04-24T02:06:08;23.45;;;15.90;;
40745;SDS011;26454;51.164;4.488;2023-04-24T02:08:34;27.77;;;16.77;;
40745;SDS011;26454;51.164;4.488;2023-04-24T02:11:00;23.52;;;15.80;;
40745;SDS011;26454;51.164;4.488;2023-04-24T02:13:27;23.60;;;16.20;;
40745;SDS011;26454;51.164;4.488;2023-04-24T02:15:53;21.58;;;15.15;;
40745;SDS011;26454;51.164;4.488;2023-04-24T02:18:19;22.55;;;15.70;;
40745;SDS011;26454;51.164;4.488;2023-04-24T02:20:47;20.02;;;15.20;;
40745;SDS011;26454;51.164;4.488;2023-04-24T02:23:13;17.05;;;14.88;;
40745;SDS011;26454;51.164;4.488;2023-04-24T02:25:40;19.83;;;15.18;;
40745;SDS011;26454;51.164;4.488;2023-04-24T02:28:06;20.73;;;16.00;;
40745;SDS011;26454;51.164;4.488;2023-04-24T02:30:32;18.33;;;15.55;;
40745;SDS011;26454;51.164;4.488;2023-04-24T02:32:58;17.50;;;14.55;;
40745;SDS011;26454;51.164;4.488;2023-04-24T02:35:24;17.73;;;14.40;;
40745;SDS011;26454;51.164;4.488;2023-04-24T02:37:51;29.27;;;15.90;;
40745;SDS011;26454;51.164;4.488;2023-04-24T02:40:18;53.45;;;18.13;;
40745;SDS011;26454;51.164;4.488;2023-04-24T02:42:44;18.45;;;15.57;;
40745;SDS011;26454;51.164;4.488;2023-04-24T02:45:10;18.73;;;16.35;;
40745;SDS011;26454;51.164;4.488;2023-04-24T02:47:37;16.42;;;14.27;;
40745;SDS011;26454;51.164;4.488;2023-04-24T02:50:03;21.73;;;16.05;;
40745;SDS011;26454;51.164;4.488;2023-04-24T02:52:30;26.60;;;17.67;;
40745;SDS011;26454;51.164;4.488;2023-04-24T02:54:56;22.33;;;16.83;;
40745;SDS011;26454;51.164;4.488;2023-04-24T02:57:23;18.33;;;16.08;;
40745;SDS011;26454;51.164;4.488;2023-04-24T02:59:49;26.08;;;18.77;;
40745;SDS011;26454;51.164;4.488;2023-04-24T03:02:15;21.88;;;17.05;;
40745;SDS011;26454;51.164;4.488;2023-04-24T03:04:41;22.75;;;17.88;;
40745;SDS011;26454;51.164;4.488;2023-04-24T03:07:09;22.65;;;17.98;;
40745;SDS011;26454;51.164;4.488;2023-04-24T03:09:36;22.15;;;18.77;;
40745;SDS011;26454;51.164;4.488;2023-04-24T03:12:02;23.48;;;18.77;;
40745;SDS011;26454;51.164;4.488;2023-04-24T03:14:30;27.00;;;19.63;;
40745;SDS011;26454;51.164;4.488;2023-04-24T03:16:56;27.10;;;19.75;;
40745;SDS011;26454;51.164;4.488;2023-04-24T03:19:22;25.75;;;20.02;;
40745;SDS011;26454;51.164;4.488;2023-04-24T03:21:50;28.17;;;21.63;;
40745;SDS011;26454;51.164;4.488;2023-04-24T03:24:16;30.40;;;20.67;;
40745;SDS011;26454;51.164;4.488;2023-04-24T03:26:42;30.63;;;22.70;;
40745;SDS011;26454;51.164;4.488;2023-04-24T03:29:08;33.13;;;23.15;;
40745;SDS011;26454;51.164;4.488;2023-04-24T03:31:34;31.67;;;24.02;;
40745;SDS011;26454;51.164;4.488;2023-04-24T03:34:00;59.90;;;26.30;;
40745;SDS011;26454;51.164;4.488;2023-04-24T03:36:26;29.67;;;22.15;;
40745;SDS011;26454;51.164;4.488;2023-04-24T03:38:52;28.88;;;23.23;;
40745;SDS011;26454;51.164;4.488;2023-04-24T03:41:18;27.05;;;21.60;;
40745;SDS011;26454;51.164;4.488;2023-04-24T03:43:45;28.98;;;22.95;;
40745;SDS011;26454;51.164;4.488;2023-04-24T03:46:11;30.30;;;23.75;;
40745;SDS011;26454;51.164;4.488;2023-04-24T03:48:37;29.00;;;21.45;;
40745;SDS011;26454;51.164;4.488;2023-04-24T03:51:03;27.38;;;19.50;;
40745;SDS011;26454;51.164;4.488;2023-04-24T03:53:29;28.15;;;21.33;;
40745;SDS011;26454;51.164;4.488;2023-04-24T03:55:55;26.08;;;19.27;;
40745;SDS011;26454;51.164;4.488;2023-04-24T03:58:21;22.35;;;18.00;;
40745;SDS011;26454;51.164;4.488;2023-04-24T04:00:48;21.73;;;14.85;;
40745;SDS011;26454;51.164;4.488;2023-04-24T04:03:14;19.52;;;13.85;;
40745;SDS011;26454;51.164;4.488;2023-04-24T04:05:41;16.83;;;12.70;;
40745;SDS011;26454;51.164;4.488;2023-04-24T04:08:07;17.88;;;12.25;;
40745;SDS011;26454;51.164;4.488;2023-04-24T04:10:33;16.98;;;10.25;;
40745;SDS011;26454;51.164;4.488;2023-04-24T04:12:59;14.68;;;9.07;;
40745;SDS011;26454;51.164;4.488;2023-04-24T04:15:25;15.07;;;9.50;;
40745;SDS011;26454;51.164;4.488;2023-04-24T04:17:51;17.88;;;9.23;;
40745;SDS011;26454;51.164;4.488;2023-04-24T04:20:17;17.75;;;10.45;;
40745;SDS011;26454;51.164;4.488;2023-04-24T04:22:44;15.90;;;10.23;;
40745;SDS011;26454;51.164;4.488;2023-04-24T04:25:10;13.20;;;10.50;;
40745;SDS011;26454;51.164;4.488;2023-04-24T04:27:38;15.23;;;10.13;;
40745;SDS011;26454;51.164;4.488;2023-04-24T04:30:06;15.57;;;10.23;;
40745;SDS011;26454;51.164;4.488;2023-04-24T04:32:34;16.88;;;11.75;;
40745;SDS011;26454;51.164;4.488;2023-04-24T04:35:00;16.50;;;11.50;;
40745;SDS011;26454;51.164;4.488;2023-04-24T04:37:29;31.55;;;15.30;;
40745;SDS011;26454;51.164;4.488;2023-04-24T04:39:56;17.98;;;13.77;;
40745;SDS011;26454;51.164;4.488;2023-04-24T04:42:23;22.73;;;13.35;;
40745;SDS011;26454;51.164;4.488;2023-04-24T04:44:50;29.63;;;15.25;;
40745;SDS011;26454;51.164;4.488;2023-04-24T04:47:16;20.60;;;13.38;;
40745;SDS011;26454;51.164;4.488;2023-04-24T04:49:42;17.50;;;14.00;;
40745;SDS011;26454;51.164;4.488;2023-04-24T04:52:09;23.00;;;17.45;;
40745;SDS011;26454;51.164;4.488;2023-04-24T04:54:35;32.70;;;20.23;;
40745;SDS011;26454;51.164;4.488;2023-04-24T04:57:01;42.78;;;22.95;;
40745;SDS011;26454;51.164;4.488;2023-04-24T04:59:27;38.28;;;26.17;;
40745;SDS011;26454;51.164;4.488;2023-04-24T05:01:53;43.00;;;25.88;;
40745;SDS011;26454;51.164;4.488;2023-04-24T05:04:20;47.47;;;31.63;;
40745;SDS011;26454;51.164;4.488;2023-04-24T05:06:47;44.90;;;27.85;;
40745;SDS011;26454;51.164;4.488;2023-04-24T05:09:13;46.72;;;29.02;;
40745;SDS011;26454;51.164;4.488;2023-04-24T05:11:39;102.25;;;34.45;;
40745;SDS011;26454;51.164;4.488;2023-04-24T05:14:05;36.85;;;22.80;;
40745;SDS011;26454;51.164;4.488;2023-04-24T05:16:31;41.40;;;22.17;;
40745;SDS011;26454;51.164;4.488;2023-04-24T05:18:57;33.50;;;21.42;;
40745;SDS011;26454;51.164;4.488;2023-04-24T05:21:23;36.03;;;20.95;;
40745;SDS011;26454;51.164;4.488;2023-04-24T05:23:50;37.85;;;20.98;;
40745;SDS011;26454;51.164;4.488;2023-04-24T05:26:16;37.47;;;20.75;;
40745;SDS011;26454;51.164;4.488;2023-04-24T05:28:42;31.77;;;20.40;;
40745;SDS011;26454;51.164;4.488;2023-04-24T05:31:08;32.78;;;20.85;;
40745;SDS011;26454;51.164;4.488;2023-04-24T05:33:35;33.70;;;20.88;;
40745;SDS011;26454;51.164;4.488;2023-04-24T05:36:01;31.30;;;17.50;;
40745;SDS011;26454;51.164;4.488;2023-04-24T05:38:27;33.63;;;17.45;;
40745;SDS011;26454;51.164;4.488;2023-04-24T05:40:53;29.65;;;16.25;;
40745;SDS011;26454;51.164;4.488;2023-04-24T05:43:19;49.92;;;19.65;;
40745;SDS011;26454;51.164;4.488;2023-04-24T05:45:45;21.40;;;14.88;;
40745;SDS011;26454;51.164;4.488;2023-04-24T05:48:12;20.05;;;15.55;;
40745;SDS011;26454;51.164;4.488;2023-04-24T05:50:38;21.75;;;13.52;;
40745;SDS011;26454;51.164;4.488;2023-04-24T05:53:05;25.95;;;14.80;;
40745;SDS011;26454;51.164;4.488;2023-04-24T05:55:32;24.80;;;14.32;;
40745;SDS011;26454;51.164;4.488;2023-04-24T05:57:59;23.30;;;14.65;;
40745;SDS011;26454;51.164;4.488;2023-04-24T06:00:25;27.95;;;16.75;;
40745;SDS011;26454;51.164;4.488;2023-04-24T06:02:51;29.25;;;15.95;;
40745;SDS011;26454;51.164;4.488;2023-04-24T06:05:17;26.58;;;15.43;;
40745;SDS011;26454;51.164;4.488;2023-04-24T06:07:44;28.77;;;18.48;;
40745;SDS011;26454;51.164;4.488;2023-04-24T06:10:10;33.22;;;19.60;;
40745;SDS011;26454;51.164;4.488;2023-04-24T06:12:36;39.80;;;25.08;;
40745;SDS011;26454;51.164;4.488;2023-04-24T06:15:02;52.45;;;30.45;;
40745;SDS011;26454;51.164;4.488;2023-04-24T06:17:29;55.55;;;31.58;;
40745;SDS011;26454;51.164;4.488;2023-04-24T06:19:55;42.42;;;26.25;;
40745;SDS011;26454;51.164;4.488;2023-04-24T06:22:21;37.60;;;23.63;;
40745;SDS011;26454;51.164;4.488;2023-04-24T06:24:48;40.55;;;22.55;;
40745;SDS011;26454;51.164;4.488;2023-04-24T06:27:14;45.67;;;25.88;;
40745;SDS011;26454;51.164;4.488;2023-04-24T06:29:40;32.58;;;21.00;;
40745;SDS011;26454;51.164;4.488;2023-04-24T06:32:06;31.65;;;20.85;;
40745;SDS011;26454;51.164;4.488;2023-04-24T06:34:32;34.63;;;22.17;;
40745;SDS011;26454;51.164;4.488;2023-04-24T06:36:59;30.60;;;20.70;;
40745;SDS011;26454;51.164;4.488;2023-04-24T06:39:26;36.53;;;22.92;;
40745;SDS011;26454;51.164;4.488;2023-04-24T06:41:51;40.67;;;23.30;;
40745;SDS011;26454;51.164;4.488;2023-04-24T06:44:18;38.33;;;21.60;;
40745;SDS011;26454;51.164;4.488;2023-04-24T06:46:47;38.80;;;22.80;;
40745;SDS011;26454;51.164;4.488;2023-04-24T06:49:13;38.95;;;22.20;;
40745;SDS011;26454;51.164;4.488;2023-04-24T06:51:41;37.75;;;21.42;;
40745;SDS011;26454;51.164;4.488;2023-04-24T06:54:07;34.22;;;21.02;;
40745;SDS011;26454;51.164;4.488;2023-04-24T06:56:33;35.95;;;22.88;;
40745;SDS011;26454;51.164;4.488;2023-04-24T06:58:59;37.95;;;24.00;;
40745;SDS011;26454;51.164;4.488;2023-04-24T07:01:25;34.63;;;21.85;;
40745;SDS011;26454;51.164;4.488;2023-04-24T07:03:51;34.45;;;20.77;;
40745;SDS011;26454;51.164;4.488;2023-04-24T07:06:17;33.40;;;21.48;;
40745;SDS011;26454;51.164;4.488;2023-04-24T07:08:46;32.40;;;18.40;;
40745;SDS011;26454;51.164;4.488;2023-04-24T07:11:12;33.40;;;18.48;;
40745;SDS011;26454;51.164;4.488;2023-04-24T07:13:38;32.80;;;18.05;;
40745;SDS011;26454;51.164;4.488;2023-04-24T07:16:07;43.42;;;15.52;;
40745;SDS011;26454;51.164;4.488;2023-04-24T07:18:33;30.40;;;12.65;;
40745;SDS011;26454;51.164;4.488;2023-04-24T07:21:00;28.00;;;13.18;;
40745;SDS011;26454;51.164;4.488;2023-04-24T07:23:26;26.90;;;12.27;;
40745;SDS011;26454;51.164;4.488;2023-04-24T07:25:52;25.83;;;11.48;;
40745;SDS011;26454;51.164;4.488;2023-04-24T07:28:20;19.05;;;9.65;;
40745;SDS011;26454;51.164;4.488;2023-04-24T07:30:49;25.20;;;10.13;;
40745;SDS011;26454;51.164;4.488;2023-04-24T07:33:15;23.65;;;10.52;;
40745;SDS011;26454;51.164;4.488;2023-04-24T07:35:42;19.85;;;9.60;;
40745;SDS011;26454;51.164;4.488;2023-04-24T07:38:15;22.98;;;9.63;;
40745;SDS011;26454;51.164;4.488;2023-04-24T07:40:50;17.73;;;8.80;;
40745;SDS011;26454;51.164;4.488;2023-04-24T07:43:16;20.42;;;8.70;;
40745;SDS011;26454;51.164;4.488;2023-04-24T07:45:45;20.38;;;8.85;;
40745;SDS011;26454;51.164;4.488;2023-04-24T07:48:11;16.50;;;7.22;;
40745;SDS011;26454;51.164;4.488;2023-04-24T07:50:41;15.02;;;7.53;;
40745;SDS011;26454;51.164;4.488;2023-04-24T07:53:07;19.55;;;6.78;;
40745;SDS011;26454;51.164;4.488;2023-04-24T07:55:33;13.02;;;6.28;;
40745;SDS011;26454;51.164;4.488;2023-04-24T07:58:00;19.77;;;6.68;;
40745;SDS011;26454;51.164;4.488;2023-04-24T08:00:27;13.48;;;6.38;;
40745;SDS011;26454;51.164;4.488;2023-04-24T08:02:56;13.93;;;5.20;;
40745;SDS011;26454;51.164;4.488;2023-04-24T08:05:22;14.05;;;7.25;;
40745;SDS011;26454;51.164;4.488;2023-04-24T08:07:50;9.43;;;5.15;;
40745;SDS011;26454;51.164;4.488;2023-04-24T08:10:21;15.93;;;5.88;;
40745;SDS011;26454;51.164;4.488;2023-04-24T08:12:47;19.73;;;6.07;;
40745;SDS011;26454;51.164;4.488;2023-04-24T08:15:16;17.85;;;6.95;;
40745;SDS011;26454;51.164;4.488;2023-04-24T08:17:43;15.63;;;5.90;;
40745;SDS011;26454;51.164;4.488;2023-04-24T08:20:10;21.83;;;7.32;;
40745;SDS011;26454;51.164;4.488;2023-04-24T08:22:41;15.45;;;5.22;;
40745;SDS011;26454;51.164;4.488;2023-04-24T08:25:07;14.75;;;7.30;;
40745;SDS011;26454;51.164;4.488;2023-04-24T08:27:33;18.25;;;6.57;;
40745;SDS011;26454;51.164;4.488;2023-04-24T08:30:01;17.08;;;6.25;;
40745;SDS011;26454;51.164;4.488;2023-04-24T08:32:30;20.77;;;7.50;;
40745;SDS011;26454;51.164;4.488;2023-04-24T08:34:59;21.30;;;7.25;;
40745;SDS011;26454;51.164;4.488;2023-04-24T08:37:28;24.55;;;8.20;;
40745;SDS011;26454;51.164;4.488;2023-04-24T08:39:55;19.52;;;6.70;;
40745;SDS011;26454;51.164;4.488;2023-04-24T08:42:21;16.73;;;7.60;;
40745;SDS011;26454;51.164;4.488;2023-04-24T08:44:53;17.60;;;6.60;;
40745;SDS011;26454;51.164;4.488;2023-04-24T08:47:20;30.30;;;7.90;;
40745;SDS011;26454;51.164;4.488;2023-04-24T08:49:48;21.20;;;6.30;;
40745;SDS011;26454;51.164;4.488;2023-04-24T08:52:15;29.52;;;7.65;;
40745;SDS011;26454;51.164;4.488;2023-04-24T08:54:42;22.85;;;7.10;;
40745;SDS011;26454;51.164;4.488;2023-04-24T08:57:10;18.17;;;7.35;;
40745;SDS011;26454;51.164;4.488;2023-04-24T08:59:37;19.27;;;6.53;;
40745;SDS011;26454;51.164;4.488;2023-04-24T09:02:13;13.82;;;5.53;;
40745;SDS011;26454;51.164;4.488;2023-04-24T09:04:43;14.23;;;5.68;;
40745;SDS011;26454;51.164;4.488;2023-04-24T09:07:10;16.58;;;5.18;;
40745;SDS011;26454;51.164;4.488;2023-04-24T09:09:38;18.40;;;6.32;;
40745;SDS011;26454;51.164;4.488;2023-04-24T09:12:12;15.70;;;6.32;;
40745;SDS011;26454;51.164;4.488;2023-04-24T09:14:56;22.38;;;5.72;;
40745;SDS011;26454;51.164;4.488;2023-04-24T09:17:23;13.75;;;4.68;;
40745;SDS011;26454;51.164;4.488;2023-04-24T09:19:52;13.18;;;4.57;;
40745;SDS011;26454;51.164;4.488;2023-04-24T09:22:19;17.67;;;5.68;;
40745;SDS011;26454;51.164;4.488;2023-04-24T09:24:48;20.13;;;5.63;;
40745;SDS011;26454;51.164;4.488;2023-04-24T09:27:28;19.45;;;5.18;;
40745;SDS011;26454;51.164;4.488;2023-04-24T09:29:55;15.18;;;4.85;;
40745;SDS011;26454;51.164;4.488;2023-04-24T09:32:22;15.10;;;5.13;;
40745;SDS011;26454;51.164;4.488;2023-04-24T09:35:04;23.88;;;6.38;;
40745;SDS011;26454;51.164;4.488;2023-04-24T09:37:34;17.85;;;7.28;;
40745;SDS011;26454;51.164;4.488;2023-04-24T09:42:37;16.73;;;6.78;;
40745;SDS011;26454;51.164;4.488;2023-04-24T09:45:04;20.40;;;8.75;;
40745;SDS011;26454;51.164;4.488;2023-04-24T09:47:38;17.90;;;5.80;;
40745;SDS011;26454;51.164;4.488;2023-04-24T09:52:41;14.50;;;5.15;;
40745;SDS011;26454;51.164;4.488;2023-04-24T09:57:47;13.82;;;5.38;;
40745;SDS011;26454;51.164;4.488;2023-04-24T10:02:39;10.82;;;4.18;;
40745;SDS011;26454;51.164;4.488;2023-04-24T10:05:05;11.80;;;3.75;;
40745;SDS011;26454;51.164;4.488;2023-04-24T10:07:32;13.35;;;4.03;;
40745;SDS011;26454;51.164;4.488;2023-04-24T10:09:58;9.05;;;3.90;;
40745;SDS011;26454;51.164;4.488;2023-04-24T10:12:26;4.97;;;2.47;;
40745;SDS011;26454;51.164;4.488;2023-04-24T10:14:53;5.28;;;2.45;;
40745;SDS011;26454;51.164;4.488;2023-04-24T10:17:20;8.05;;;2.58;;
40745;SDS011;26454;51.164;4.488;2023-04-24T10:19:46;3.75;;;1.85;;
40745;SDS011;26454;51.164;4.488;2023-04-24T10:22:15;5.07;;;2.10;;
40745;SDS011;26454;51.164;4.488;2023-04-24T10:27:09;6.25;;;2.00;;
40745;SDS011;26454;51.164;4.488;2023-04-24T10:29:35;4.13;;;1.98;;
40745;SDS011;26454;51.164;4.488;2023-04-24T10:32:01;8.85;;;2.72;;
40745;SDS011;26454;51.164;4.488;2023-04-24T10:34:27;9.88;;;2.13;;
40745;SDS011;26454;51.164;4.488;2023-04-24T10:36:54;4.88;;;2.75;;
40745;SDS011;26454;51.164;4.488;2023-04-24T10:39:21;7.93;;;2.30;;
40745;SDS011;26454;51.164;4.488;2023-04-24T10:41:48;6.57;;;2.83;;
40745;SDS011;26454;51.164;4.488;2023-04-24T10:44:15;5.80;;;2.25;;
40745;SDS011;26454;51.164;4.488;2023-04-24T10:46:43;7.50;;;2.75;;
40745;SDS011;26454;51.164;4.488;2023-04-24T10:49:10;4.47;;;2.50;;
40745;SDS011;26454;51.164;4.488;2023-04-24T10:59:35;4.50;;;2.92;;
40745;SDS011;26454;51.164;4.488;2023-04-24T11:02:02;8.18;;;3.35;;
40745;SDS011;26454;51.164;4.488;2023-04-24T11:04:29;8.80;;;3.00;;
40745;SDS011;26454;51.164;4.488;2023-04-24T11:06:57;5.82;;;2.53;;
40745;SDS011;26454;51.164;4.488;2023-04-24T11:09:28;7.70;;;2.28;;
40745;SDS011;26454;51.164;4.488;2023-04-24T11:12:03;6.80;;;2.60;;
40745;SDS011;26454;51.164;4.488;2023-04-24T11:17:08;4.85;;;2.35;;
40745;SDS011;26454;51.164;4.488;2023-04-24T11:19:35;4.70;;;2.00;;
40745;SDS011;26454;51.164;4.488;2023-04-24T11:22:02;5.15;;;2.00;;
40745;SDS011;26454;51.164;4.488;2023-04-24T11:24:32;4.38;;;2.10;;
40745;SDS011;26454;51.164;4.488;2023-04-24T11:27:06;5.88;;;2.50;;
40745;SDS011;26454;51.164;4.488;2023-04-24T11:29:40;4.72;;;1.70;;
40745;SDS011;26454;51.164;4.488;2023-04-24T11:34:45;4.03;;;2.00;;
40745;SDS011;26454;51.164;4.488;2023-04-24T11:37:12;4.38;;;1.98;;
40745;SDS011;26454;51.164;4.488;2023-04-24T11:39:39;2.53;;;1.58;;
40745;SDS011;26454;51.164;4.488;2023-04-24T11:42:06;1.85;;;1.00;;
40745;SDS011;26454;51.164;4.488;2023-04-24T11:44:34;4.38;;;1.60;;
40745;SDS011;26454;51.164;4.488;2023-04-24T11:47:04;3.50;;;1.50;;
40745;SDS011;26454;51.164;4.488;2023-04-24T11:49:38;4.70;;;1.83;;
40745;SDS011;26454;51.164;4.488;2023-04-24T11:52:04;4.18;;;1.33;;
40745;SDS011;26454;51.164;4.488;2023-04-24T11:54:32;2.78;;;2.05;;
40745;SDS011;26454;51.164;4.488;2023-04-24T11:56:59;3.13;;;1.30;;
40745;SDS011;26454;51.164;4.488;2023-04-24T11:59:25;4.15;;;1.50;;
40745;SDS011;26454;51.164;4.488;2023-04-24T12:01:51;4.93;;;1.85;;
40745;SDS011;26454;51.164;4.488;2023-04-24T12:04:17;5.10;;;1.65;;
40745;SDS011;26454;51.164;4.488;2023-04-24T12:09:21;4.72;;;1.88;;
40745;SDS011;26454;51.164;4.488;2023-04-24T12:11:56;10.02;;;2.25;;
40745;SDS011;26454;51.164;4.488;2023-04-24T12:14:23;5.05;;;2.03;;
40745;SDS011;26454;51.164;4.488;2023-04-24T12:16:50;5.45;;;2.22;;
40745;SDS011;26454;51.164;4.488;2023-04-24T12:19:20;4.22;;;1.50;;
40745;SDS011;26454;51.164;4.488;2023-04-24T12:24:27;5.07;;;2.08;;
40745;SDS011;26454;51.164;4.488;2023-04-24T12:26:54;2.97;;;1.27;;
40745;SDS011;26454;51.164;4.488;2023-04-24T12:29:20;4.03;;;1.30;;
40745;SDS011;26454;51.164;4.488;2023-04-24T12:31:46;2.78;;;1.40;;
40745;SDS011;26454;51.164;4.488;2023-04-24T12:34:19;4.43;;;1.88;;
40745;SDS011;26454;51.164;4.488;2023-04-24T12:36:45;3.40;;;1.65;;
40745;SDS011;26454;51.164;4.488;2023-04-24T12:39:16;4.10;;;1.73;;
40745;SDS011;26454;51.164;4.488;2023-04-24T12:44:18;10.30;;;2.03;;
40745;SDS011;26454;51.164;4.488;2023-04-24T12:46:47;18.10;;;2.88;;
40745;SDS011;26454;51.164;4.488;2023-04-24T12:49:13;5.80;;;2.03;;
40745;SDS011;26454;51.164;4.488;2023-04-24T12:51:39;5.75;;;2.30;;
40745;SDS011;26454;51.164;4.488;2023-04-24T12:54:07;8.63;;;2.25;;
40745;SDS011;26454;51.164;4.488;2023-04-24T12:56:39;5.93;;;1.83;;
40745;SDS011;26454;51.164;4.488;2023-04-24T12:59:07;4.65;;;2.17;;
40745;SDS011;26454;51.164;4.488;2023-04-24T13:01:33;6.88;;;2.00;;
40745;SDS011;26454;51.164;4.488;2023-04-24T13:04:00;12.13;;;2.47;;
40745;SDS011;26454;51.164;4.488;2023-04-24T13:06:26;4.18;;;1.98;;
40745;SDS011;26454;51.164;4.488;2023-04-24T13:08:52;5.22;;;2.00;;
40745;SDS011;26454;51.164;4.488;2023-04-24T13:11:22;3.83;;;2.58;;
40745;SDS011;26454;51.164;4.488;2023-04-24T13:13:48;4.50;;;2.28;;
40745;SDS011;26454;51.164;4.488;2023-04-24T13:16:14;5.70;;;2.35;;
40745;SDS011;26454;51.164;4.488;2023-04-24T13:18:41;8.63;;;1.98;;
40745;SDS011;26454;51.164;4.488;2023-04-24T13:21:07;5.75;;;2.33;;
40745;SDS011;26454;51.164;4.488;2023-04-24T13:23:33;4.18;;;1.80;;
40745;SDS011;26454;51.164;4.488;2023-04-24T13:25:59;5.68;;;1.80;;
40745;SDS011;26454;51.164;4.488;2023-04-24T13:28:28;2.08;;;1.33;;
40745;SDS011;26454;51.164;4.488;2023-04-24T13:30:55;3.40;;;1.60;;
40745;SDS011;26454;51.164;4.488;2023-04-24T13:33:24;7.18;;;2.10;;
40745;SDS011;26454;51.164;4.488;2023-04-24T13:35:50;3.13;;;1.52;;
40745;SDS011;26454;51.164;4.488;2023-04-24T13:38:17;3.55;;;1.48;;
40745;SDS011;26454;51.164;4.488;2023-04-24T13:40:46;2.85;;;1.33;;
40745;SDS011;26454;51.164;4.488;2023-04-24T13:43:12;4.00;;;1.70;;
40745;SDS011;26454;51.164;4.488;2023-04-24T13:45:40;6.03;;;1.75;;
40745;SDS011;26454;51.164;4.488;2023-04-24T13:48:07;1.90;;;1.20;;
40745;SDS011;26454;51.164;4.488;2023-04-24T13:50:40;5.57;;;1.38;;
40745;SDS011;26454;51.164;4.488;2023-04-24T13:53:06;4.40;;;1.13;;
40745;SDS011;26454;51.164;4.488;2023-04-24T13:55:32;2.65;;;1.35;;
40745;SDS011;26454;51.164;4.488;2023-04-24T13:57:59;2.13;;;1.10;;
40745;SDS011;26454;51.164;4.488;2023-04-24T14:00:28;3.15;;;1.50;;
40745;SDS011;26454;51.164;4.488;2023-04-24T14:02:54;3.65;;;1.08;;
40745;SDS011;26454;51.164;4.488;2023-04-24T14:05:21;2.08;;;0.90;;
40745;SDS011;26454;51.164;4.488;2023-04-24T14:07:47;2.47;;;1.10;;
40745;SDS011;26454;51.164;4.488;2023-04-24T14:10:13;1.88;;;0.88;;
40745;SDS011;26454;51.164;4.488;2023-04-24T14:12:39;3.85;;;0.95;;
40745;SDS011;26454;51.164;4.488;2023-04-24T14:15:09;3.33;;;1.15;;
40745;SDS011;26454;51.164;4.488;2023-04-24T14:17:40;4.60;;;1.30;;
40745;SDS011;26454;51.164;4.488;2023-04-24T14:20:07;3.03;;;1.20;;
40745;SDS011;26454;51.164;4.488;2023-04-24T14:22:34;2.58;;;1.02;;
40745;SDS011;26454;51.164;4.488;2023-04-24T14:25:00;2.67;;;1.30;;
40745;SDS011;26454;51.164;4.488;2023-04-24T14:27:26;5.28;;;1.77;;
40745;SDS011;26454;51.164;4.488;2023-04-24T14:29:52;5.00;;;1.50;;
40745;SDS011;26454;51.164;4.488;2023-04-24T14:32:18;5.47;;;1.90;;
40745;SDS011;26454;51.164;4.488;2023-04-24T14:34:44;4.43;;;2.10;;
40745;SDS011;26454;51.164;4.488;2023-04-24T14:37:10;4.22;;;1.77;;
40745;SDS011;26454;51.164;4.488;2023-04-24T14:39:36;4.63;;;1.75;;
40745;SDS011;26454;51.164;4.488;2023-04-24T14:42:02;2.78;;;1.60;;
40745;SDS011;26454;51.164;4.488;2023-04-24T14:44:28;2.70;;;1.30;;
40745;SDS011;26454;51.164;4.488;2023-04-24T14:46:54;2.30;;;1.17;;
40745;SDS011;26454;51.164;4.488;2023-04-24T14:49:21;2.33;;;1.10;;
40745;SDS011;26454;51.164;4.488;2023-04-24T14:51:47;2.45;;;1.30;;
40745;SDS011;26454;51.164;4.488;2023-04-24T14:54:13;4.53;;;1.30;;
40745;SDS011;26454;51.164;4.488;2023-04-24T14:56:39;2.22;;;1.38;;
40745;SDS011;26454;51.164;4.488;2023-04-24T14:59:06;3.28;;;1.48;;
40745;SDS011;26454;51.164;4.488;2023-04-24T15:01:32;6.47;;;1.42;;
40745;SDS011;26454;51.164;4.488;2023-04-24T15:03:58;1.88;;;1.38;;
40745;SDS011;26454;51.164;4.488;2023-04-24T15:06:24;5.10;;;1.60;;